Time;durP1;ratioP1;P1;durP2;ratioP2;P2;SDS_P1;SDS_P2;PMS_P1;PMS_P2;Temp;Humidity;BMP_temperature;BMP_pressure;BME280_temperature;BME280_humidity;BME280_pressure;Samples;Min_cycle;Max_cycle;Signal;HPM_P1;HPM_P2
2023/12/18 00:01:13;;;;;;;10.93;6.83;;;;;;;;;;4973283;28;20199;-46
2023/12/18 00:03:40;;;;;;;11.93;6.43;;;;;;;;;;4973247;28;20199;-46
2023/12/18 00:06:07;;;;;;;11.83;6.33;;;;;;;;;;4973212;28;20214;-46
2023/12/18 00:08:33;;;;;;;10.90;7.60;;;;;;;;;;4972668;28;20234;-46
2023/12/18 00:10:59;;;;;;;13.37;7.50;;;;;;;;;;4972616;28;20230;-46
2023/12/18 00:13:25;;;;;;;13.57;7.30;;;;;;;;;;4973028;28;20638;-46
2023/12/18 00:15:51;;;;;;;10.67;7.13;;;;;;;;;;4972978;28;20210;-46
2023/12/18 00:18:17;;;;;;;11.63;6.80;;;;;;;;;;4972915;28;20459;-46
2023/12/18 00:20:44;;;;;;;13.03;7.83;;;;;;;;;;4972972;28;20199;-46
2023/12/18 00:23:10;;;;;;;12.77;8.50;;;;;;;;;;4972731;28;20303;-46
2023/12/18 00:25:36;;;;;;;11.97;7.80;;;;;;;;;;4972805;28;20207;-46
2023/12/18 00:28:02;;;;;;;14.87;7.50;;;;;;;;;;4972813;28;20586;-47
2023/12/18 00:30:28;;;;;;;10.43;7.83;;;;;;;;;;4972730;28;20227;-47
2023/12/18 00:32:54;;;;;;;15.93;8.50;;;;;;;;;;4972789;28;20399;-47
2023/12/18 00:35:20;;;;;;;12.43;7.63;;;;;;;;;;4972355;28;20202;-46
2023/12/18 00:37:47;;;;;;;13.33;7.80;;;;;;;;;;4973055;28;20206;-46
2023/12/18 00:40:13;;;;;;;14.27;8.03;;;;;;;;;;4972732;28;20187;-47
2023/12/18 00:42:39;;;;;;;13.43;8.23;;;;;;;;;;4972827;28;20739;-46
2023/12/18 00:45:06;;;;;;;13.17;7.70;;;;;;;;;;4972766;28;20295;-46
2023/12/18 00:47:32;;;;;;;16.53;8.57;;;;;;;;;;4972252;28;20447;-47
2023/12/18 00:49:58;;;;;;;10.90;7.53;;;;;;;;;;4972716;28;20202;-46
2023/12/18 00:52:24;;;;;;;12.93;8.23;;;;;;;;;;4972690;28;20241;-46
2023/12/18 00:54:51;;;;;;;16.33;8.60;;;;;;;;;;4972676;28;20207;-46
2023/12/18 00:57:17;;;;;;;13.33;8.40;;;;;;;;;;4972654;28;20195;-46
2023/12/18 00:59:43;;;;;;;13.77;8.53;;;;;;;;;;4972287;28;20623;-47
2023/12/18 01:02:09;;;;;;;13.60;8.40;;;;;;;;;;4972595;28;20198;-47
2023/12/18 01:04:36;;;;;;;11.73;8.27;;;;;;;;;;4972441;28;20223;-47
2023/12/18 01:07:02;;;;;;;12.17;8.97;;;;;;;;;;4972594;28;20630;-47
2023/12/18 01:09:28;;;;;;;12.63;8.93;;;;;;;;;;4972414;28;20237;-46
2023/12/18 01:11:55;;;;;;;12.33;8.47;;;;;;;;;;4972313;28;20229;-46
2023/12/18 01:14:21;;;;;;;11.07;8.93;;;;;;;;;;4972400;28;20218;-46
2023/12/18 01:16:47;;;;;;;14.10;9.43;;;;;;;;;;4972437;28;20211;-46
2023/12/18 01:19:13;;;;;;;13.73;9.30;;;;;;;;;;4972606;28;20282;-46
2023/12/18 01:21:39;;;;;;;16.60;8.83;;;;;;;;;;4974934;28;20282;-47
2023/12/18 01:24:05;;;;;;;13.57;9.50;;;;;;;;;;4975703;28;20222;-46
2023/12/18 01:26:32;;;;;;;14.57;9.40;;;;;;;;;;4975931;28;20205;-47
2023/12/18 01:28:59;;;;;;;16.80;10.13;;;;;;;;;;4975873;28;20266;-46
2023/12/18 01:31:25;;;;;;;14.70;9.87;;;;;;;;;;4975733;28;20246;-46
2023/12/18 01:33:53;;;;;;;14.17;10.30;;;;;;;;;;4975982;28;20199;-46
2023/12/18 01:36:19;;;;;;;13.63;9.27;;;;;;;;;;4979638;28;20226;-47
2023/12/18 01:38:45;;;;;;;13.87;9.30;;;;;;;;;;4995203;28;20689;-47
2023/12/18 01:41:12;;;;;;;13.87;9.50;;;;;;;;;;4995595;28;20190;-47
2023/12/18 01:43:38;;;;;;;16.07;9.57;;;;;;;;;;4995202;28;20199;-48
2023/12/18 01:46:05;;;;;;;13.37;9.80;;;;;;;;;;4995171;28;20654;-48
2023/12/18 01:48:32;;;;;;;17.03;10.57;;;;;;;;;;4995120;28;20198;-48
2023/12/18 01:50:59;;;;;;;14.10;10.07;;;;;;;;;;4995167;28;20735;-48
2023/12/18 01:53:26;;;;;;;13.33;10.10;;;;;;;;;;4995107;28;20422;-48
2023/12/18 01:55:52;;;;;;;14.50;9.97;;;;;;;;;;4995175;28;20198;-48
2023/12/18 01:58:18;;;;;;;15.20;10.63;;;;;;;;;;4995017;28;20209;-48
2023/12/18 02:00:44;;;;;;;18.37;9.73;;;;;;;;;;4994895;28;20290;-49
2023/12/18 02:03:12;;;;;;;17.27;10.57;;;;;;;;;;4995061;28;20202;-48
2023/12/18 02:05:38;;;;;;;17.03;10.30;;;;;;;;;;4994837;28;20225;-48
2023/12/18 02:08:05;;;;;;;12.10;9.73;;;;;;;;;;4994987;28;20210;-48
2023/12/18 02:10:31;;;;;;;14.50;10.13;;;;;;;;;;4994668;28;20222;-48
2023/12/18 02:12:57;;;;;;;15.70;10.13;;;;;;;;;;4994836;28;20194;-48
2023/12/18 02:15:23;;;;;;;16.37;10.83;;;;;;;;;;4994890;28;20340;-48
2023/12/18 02:17:49;;;;;;;12.93;10.93;;;;;;;;;;4994656;28;20209;-48
2023/12/18 02:20:16;;;;;;;16.50;10.50;;;;;;;;;;4994623;28;20213;-48
2023/12/18 02:22:51;;;;;;;11.90;10.43;;;;;;;;;;4994546;28;20226;-48
2023/12/18 02:25:18;;;;;;;13.83;9.97;;;;;;;;;;4994547;28;20210;-48
2023/12/18 02:27:44;;;;;;;17.30;10.37;;;;;;;;;;4994185;28;20600;-48
2023/12/18 02:30:14;;;;;;;15.47;10.87;;;;;;;;;;4994478;28;20562;-48
2023/12/18 02:32:40;;;;;;;18.30;11.10;;;;;;;;;;4994289;28;20656;-48
2023/12/18 02:35:06;;;;;;;16.13;11.53;;;;;;;;;;4994519;28;20209;-48
2023/12/18 02:37:32;;;;;;;16.90;11.73;;;;;;;;;;4994290;28;20206;-49
2023/12/18 02:40:00;;;;;;;14.63;10.87;;;;;;;;;;4994410;28;20202;-48
2023/12/18 02:42:26;;;;;;;19.90;10.90;;;;;;;;;;4994282;28;20217;-48
2023/12/18 02:44:51;;;;;;;14.40;10.60;;;;;;;;;;4994321;28;20669;-48
2023/12/18 02:47:17;;;;;;;15.53;10.17;;;;;;;;;;4994089;28;20249;-48
2023/12/18 02:49:43;;;;;;;16.00;11.53;;;;;;;;;;4994061;28;20230;-48
2023/12/18 02:52:10;;;;;;;15.13;10.87;;;;;;;;;;4994126;28;20230;-48
2023/12/18 02:54:36;;;;;;;19.73;11.80;;;;;;;;;;4993926;28;20202;-48
2023/12/18 02:57:04;;;;;;;18.03;10.90;;;;;;;;;;4994029;28;20201;-48
2023/12/18 02:59:30;;;;;;;22.83;12.40;;;;;;;;;;4993966;28;20206;-49
2023/12/18 03:01:56;;;;;;;16.20;11.70;;;;;;;;;;4994020;28;20241;-48
2023/12/18 03:04:22;;;;;;;18.77;11.73;;;;;;;;;;4993807;28;20665;-48
2023/12/18 03:06:48;;;;;;;16.57;11.67;;;;;;;;;;4993829;28;20612;-48
2023/12/18 03:09:14;;;;;;;15.10;10.83;;;;;;;;;;4993814;28;20257;-48
2023/12/18 03:11:40;;;;;;;16.90;11.93;;;;;;;;;;4993634;28;20230;-48
2023/12/18 03:14:08;;;;;;;17.50;12.63;;;;;;;;;;4993781;28;20279;-48
2023/12/18 03:16:35;;;;;;;17.47;11.97;;;;;;;;;;4993532;28;20695;-48
2023/12/18 03:19:01;;;;;;;16.47;11.43;;;;;;;;;;4993624;28;20209;-48
2023/12/18 03:21:27;;;;;;;17.30;11.90;;;;;;;;;;4993518;28;20190;-48
2023/12/18 03:23:53;;;;;;;15.97;11.87;;;;;;;;;;4993671;28;20248;-48
2023/12/18 03:26:19;;;;;;;16.47;11.93;;;;;;;;;;4993423;28;20190;-48
2023/12/18 03:28:45;;;;;;;17.93;12.53;;;;;;;;;;4993231;28;20591;-48
2023/12/18 03:31:14;;;;;;;16.37;12.73;;;;;;;;;;4993406;28;20225;-48
2023/12/18 03:33:40;;;;;;;15.23;12.50;;;;;;;;;;4993316;28;20293;-48
2023/12/18 03:36:06;;;;;;;19.70;13.33;;;;;;;;;;4993245;28;20437;-49
2023/12/18 03:38:32;;;;;;;15.77;12.07;;;;;;;;;;4993053;28;20198;-48
2023/12/18 03:40:58;;;;;;;21.13;13.37;;;;;;;;;;4993233;28;20724;-48
2023/12/18 03:43:24;;;;;;;21.63;12.87;;;;;;;;;;4992686;28;20202;-49
2023/12/18 03:45:50;;;;;;;17.90;13.03;;;;;;;;;;4993042;28;20206;-48
2023/12/18 03:48:20;;;;;;;19.07;13.93;;;;;;;;;;4992921;28;20209;-48
2023/12/18 03:50:46;;;;;;;19.73;13.57;;;;;;;;;;4992783;28;20696;-48
2023/12/18 03:53:13;;;;;;;18.30;12.73;;;;;;;;;;4993038;28;20229;-48
2023/12/18 03:55:39;;;;;;;23.93;13.83;;;;;;;;;;4992891;28;20198;-48
2023/12/18 03:58:05;;;;;;;16.93;14.13;;;;;;;;;;4992963;28;20202;-48
2023/12/18 04:00:31;;;;;;;18.70;13.57;;;;;;;;;;4992706;28;20574;-48
2023/12/18 04:02:57;;;;;;;21.50;13.23;;;;;;;;;;4992886;28;20286;-47
2023/12/18 04:05:24;;;;;;;17.43;13.60;;;;;;;;;;4992775;28;20198;-48
2023/12/18 04:07:51;;;;;;;18.27;13.87;;;;;;;;;;4992717;28;20205;-47
2023/12/18 04:10:17;;;;;;;22.57;14.43;;;;;;;;;;4992591;28;20194;-48
2023/12/18 04:12:43;;;;;;;23.67;14.67;;;;;;;;;;4992619;28;20206;-47
2023/12/18 04:15:09;;;;;;;19.93;14.83;;;;;;;;;;4992563;28;20634;-47
2023/12/18 04:17:36;;;;;;;23.40;15.43;;;;;;;;;;4992254;28;20234;-47
2023/12/18 04:20:02;;;;;;;21.73;14.90;;;;;;;;;;4992520;28;20222;-47
2023/12/18 04:22:29;;;;;;;22.27;15.33;;;;;;;;;;4992405;28;20256;-47
2023/12/18 04:24:55;;;;;;;22.70;15.03;;;;;;;;;;4992685;28;20214;-48
2023/12/18 04:27:21;;;;;;;19.37;15.40;;;;;;;;;;4992150;28;20237;-48
2023/12/18 04:29:47;;;;;;;20.43;15.63;;;;;;;;;;4992564;28;20656;-48
2023/12/18 04:32:13;;;;;;;23.33;15.07;;;;;;;;;;4992171;28;20237;-47
2023/12/18 04:34:39;;;;;;;18.97;15.03;;;;;;;;;;4992382;28;20194;-47
2023/12/18 04:37:05;;;;;;;21.87;15.27;;;;;;;;;;4992466;28;20237;-47
2023/12/18 04:39:33;;;;;;;23.20;15.67;;;;;;;;;;4992202;28;20602;-48
2023/12/18 04:41:59;;;;;;;26.27;16.40;;;;;;;;;;4992348;28;20202;-48
2023/12/18 04:44:25;;;;;;;20.47;15.87;;;;;;;;;;4992436;28;20198;-47
2023/12/18 04:46:51;;;;;;;19.00;14.80;;;;;;;;;;4992261;28;20226;-48
2023/12/18 04:49:17;;;;;;;22.20;15.47;;;;;;;;;;4992206;28;20202;-48
2023/12/18 04:51:43;;;;;;;21.50;15.27;;;;;;;;;;4992087;28;20232;-48
2023/12/18 04:54:10;;;;;;;26.87;17.33;;;;;;;;;;4992329;28;20652;-48
2023/12/18 04:56:37;;;;;;;23.87;16.67;;;;;;;;;;4994755;28;20206;-48
2023/12/18 04:59:03;;;;;;;24.47;17.13;;;;;;;;;;4996102;28;20194;-48
2023/12/18 05:01:29;;;;;;;28.37;18.13;;;;;;;;;;4995968;28;20236;-48
2023/12/18 05:03:55;;;;;;;24.37;17.67;;;;;;;;;;4996139;28;20202;-47
2023/12/18 05:06:21;;;;;;;23.23;16.87;;;;;;;;;;4995984;28;20570;-47
2023/12/18 05:08:47;;;;;;;26.67;17.53;;;;;;;;;;4995958;28;20433;-47
2023/12/18 05:11:13;;;;;;;28.83;16.93;;;;;;;;;;4995918;28;20261;-47
2023/12/18 05:13:41;;;;;;;22.33;16.33;;;;;;;;;;4996047;28;20975;-47
2023/12/18 05:16:07;;;;;;;24.90;16.67;;;;;;;;;;4995819;28;20207;-48
2023/12/18 05:18:33;;;;;;;24.70;17.13;;;;;;;;;;4995830;28;20686;-47
2023/12/18 05:20:59;;;;;;;25.53;17.50;;;;;;;;;;4995783;28;20206;-48
2023/12/18 05:23:25;;;;;;;26.37;17.77;;;;;;;;;;4995645;28;20245;-48
2023/12/18 05:25:51;;;;;;;23.43;17.97;;;;;;;;;;4995491;28;20238;-48
2023/12/18 05:28:17;;;;;;;26.33;17.57;;;;;;;;;;4981919;28;20738;-48
2023/12/18 05:30:45;;;;;;;27.40;17.73;;;;;;;;;;4981706;28;20329;-48
2023/12/18 05:33:11;;;;;;;27.80;17.53;;;;;;;;;;4982076;28;20629;-48
2023/12/18 05:35:37;;;;;;;26.00;18.07;;;;;;;;;;4981809;28;20205;-48
2023/12/18 05:38:03;;;;;;;24.93;17.73;;;;;;;;;;4982061;28;20209;-48
2023/12/18 05:40:29;;;;;;;25.27;16.90;;;;;;;;;;4983538;28;20201;-48
2023/12/18 05:42:55;;;;;;;22.63;16.53;;;;;;;;;;4981929;28;20570;-48
2023/12/18 05:45:21;;;;;;;23.60;16.33;;;;;;;;;;4981648;28;20214;-48
2023/12/18 05:47:49;;;;;;;26.17;17.47;;;;;;;;;;4981698;28;20217;-48
2023/12/18 05:50:15;;;;;;;21.00;15.67;;;;;;;;;;4983409;28;20217;-47
2023/12/18 05:52:41;;;;;;;24.03;16.27;;;;;;;;;;4981679;28;20207;-48
2023/12/18 05:55:08;;;;;;;26.90;16.67;;;;;;;;;;4980067;28;20439;-48
2023/12/18 05:57:34;;;;;;;24.70;17.17;;;;;;;;;;4983198;28;20438;-48
2023/12/18 06:00:00;;;;;;;23.60;17.33;;;;;;;;;;4981484;28;20680;-48
2023/12/18 06:02:26;;;;;;;28.03;17.00;;;;;;;;;;4982391;28;20429;-48
2023/12/18 06:04:53;;;;;;;24.30;17.97;;;;;;;;;;4981558;28;20568;-48
2023/12/18 06:07:19;;;;;;;22.57;16.90;;;;;;;;;;4982513;28;20572;-48
2023/12/18 06:09:45;;;;;;;24.40;17.37;;;;;;;;;;4981355;28;20202;-48
2023/12/18 06:12:11;;;;;;;26.70;16.93;;;;;;;;;;4981238;28;20226;-48
2023/12/18 06:14:37;;;;;;;36.03;19.77;;;;;;;;;;4980993;28;20209;-48
2023/12/18 06:17:03;;;;;;;27.73;18.30;;;;;;;;;;4980869;28;20202;-48
2023/12/18 06:19:30;;;;;;;26.40;16.60;;;;;;;;;;4980845;28;20205;-48
2023/12/18 06:21:58;;;;;;;23.03;17.03;;;;;;;;;;4981093;28;20194;-48
2023/12/18 06:24:24;;;;;;;24.10;17.40;;;;;;;;;;4981143;28;20206;-48
2023/12/18 06:26:50;;;;;;;24.20;17.27;;;;;;;;;;4982842;28;20620;-48
2023/12/18 06:29:15;;;;;;;26.17;16.30;;;;;;;;;;4982629;28;20202;-48
2023/12/18 06:31:41;;;;;;;20.10;15.43;;;;;;;;;;4980692;28;20234;-48
2023/12/18 06:34:07;;;;;;;22.03;16.30;;;;;;;;;;4980862;28;20523;-47
2023/12/18 06:36:33;;;;;;;23.83;16.77;;;;;;;;;;4980531;28;20237;-48
2023/12/18 06:39:01;;;;;;;23.53;16.70;;;;;;;;;;4980719;28;20206;-48
2023/12/18 06:41:27;;;;;;;25.50;17.30;;;;;;;;;;4980732;28;20190;-48
2023/12/18 06:43:53;;;;;;;23.40;16.80;;;;;;;;;;4980618;28;20468;-48
2023/12/18 06:46:19;;;;;;;25.00;16.40;;;;;;;;;;4980583;28;20256;-48
2023/12/18 06:48:45;;;;;;;27.17;18.43;;;;;;;;;;4980485;28;20562;-47
2023/12/18 06:51:11;;;;;;;24.43;16.80;;;;;;;;;;4980460;28;20226;-48
2023/12/18 06:53:37;;;;;;;25.07;17.27;;;;;;;;;;4980303;28;20198;-48
2023/12/18 06:56:04;;;;;;;25.43;17.43;;;;;;;;;;4980573;28;20260;-48
2023/12/18 06:58:30;;;;;;;24.60;16.93;;;;;;;;;;4981852;28;20198;-48
2023/12/18 07:00:56;;;;;;;25.23;17.53;;;;;;;;;;4980256;28;20212;-48
2023/12/18 07:03:22;;;;;;;18.73;15.33;;;;;;;;;;4980388;28;20202;-48
2023/12/18 07:05:48;;;;;;;22.67;16.20;;;;;;;;;;4980314;28;20202;-48
2023/12/18 07:08:14;;;;;;;22.77;16.47;;;;;;;;;;4980325;28;20205;-47
2023/12/18 07:10:40;;;;;;;20.73;16.23;;;;;;;;;;4980059;28;20718;-48
2023/12/18 07:13:07;;;;;;;24.53;15.93;;;;;;;;;;4980175;28;20285;-48
2023/12/18 07:15:34;;;;;;;22.87;15.60;;;;;;;;;;4980052;28;20229;-48
2023/12/18 07:18:00;;;;;;;23.00;15.70;;;;;;;;;;4979201;28;20216;-48
2023/12/18 07:20:27;;;;;;;24.30;17.67;;;;;;;;;;4980073;28;20253;-48
2023/12/18 07:22:53;;;;;;;24.60;16.50;;;;;;;;;;4979835;28;20210;-48
2023/12/18 07:25:19;;;;;;;21.13;15.87;;;;;;;;;;4979846;28;20272;-48
2023/12/18 07:27:45;;;;;;;22.83;16.80;;;;;;;;;;4979405;28;20242;-48
2023/12/18 07:30:13;;;;;;;20.43;15.70;;;;;;;;;;4979855;28;20225;-47
2023/12/18 07:32:39;;;;;;;21.20;15.90;;;;;;;;;;4979676;28;20230;-48
2023/12/18 07:35:06;;;;;;;20.90;16.57;;;;;;;;;;4979821;28;20218;-48
2023/12/18 07:37:32;;;;;;;23.00;15.73;;;;;;;;;;4979563;28;20202;-49
2023/12/18 07:39:58;;;;;;;21.90;16.77;;;;;;;;;;4979759;28;20256;-48
2023/12/18 07:42:24;;;;;;;21.90;15.83;;;;;;;;;;4979640;28;20248;-48
2023/12/18 07:44:50;;;;;;;22.23;16.53;;;;;;;;;;4979516;28;20566;-48
2023/12/18 07:47:17;;;;;;;25.73;15.77;;;;;;;;;;4981098;28;20206;-48
2023/12/18 07:49:44;;;;;;;20.20;16.27;;;;;;;;;;4979405;28;20445;-48
2023/12/18 07:52:10;;;;;;;29.47;17.40;;;;;;;;;;4979613;28;20264;-48
2023/12/18 07:54:36;;;;;;;25.13;16.63;;;;;;;;;;4979362;28;20234;-48
2023/12/18 07:57:02;;;;;;;23.60;16.60;;;;;;;;;;4981145;28;20198;-48
2023/12/18 07:59:28;;;;;;;20.97;16.70;;;;;;;;;;4980943;28;20201;-48
2023/12/18 08:01:54;;;;;;;25.03;18.00;;;;;;;;;;4979259;28;20201;-48
2023/12/18 08:04:22;;;;;;;25.27;17.07;;;;;;;;;;4980948;28;20627;-48
2023/12/18 08:06:51;;;;;;;21.43;16.60;;;;;;;;;;4979132;28;20202;-48
2023/12/18 08:09:17;;;;;;;26.60;15.63;;;;;;;;;;4979238;28;20253;-48
2023/12/18 08:11:43;;;;;;;21.67;15.20;;;;;;;;;;4980578;28;20229;-48
2023/12/18 08:14:09;;;;;;;23.70;17.03;;;;;;;;;;4978717;28;20209;-48
2023/12/18 08:16:35;;;;;;;22.87;15.60;;;;;;;;;;4978795;28;20285;-48
2023/12/18 08:19:01;;;;;;;20.33;15.60;;;;;;;;;;4979043;28;20198;-47
2023/12/18 08:21:28;;;;;;;25.27;15.70;;;;;;;;;;4978678;28;20190;-47
2023/12/18 08:23:54;;;;;;;20.83;16.27;;;;;;;;;;4978461;28;20226;-48
2023/12/18 08:26:20;;;;;;;22.03;15.20;;;;;;;;;;4978119;28;20225;-48
2023/12/18 08:28:46;;;;;;;25.53;14.87;;;;;;;;;;4978570;28;20249;-47
2023/12/18 08:31:12;;;;;;;26.53;16.30;;;;;;;;;;4978737;28;20253;-47
2023/12/18 08:33:38;;;;;;;22.73;15.63;;;;;;;;;;4978677;28;20202;-48
2023/12/18 08:36:05;;;;;;;21.53;14.83;;;;;;;;;;4978791;28;20738;-47
2023/12/18 08:38:32;;;;;;;26.77;16.67;;;;;;;;;;4978658;28;20202;-47
2023/12/18 08:40:58;;;;;;;21.30;14.80;;;;;;;;;;4980564;28;20194;-47
2023/12/18 08:43:24;;;;;;;20.37;15.57;;;;;;;;;;4978980;28;20649;-47
2023/12/18 08:45:50;;;;;;;26.67;15.60;;;;;;;;;;4978524;28;20205;-47
2023/12/18 08:48:16;;;;;;;20.03;15.00;;;;;;;;;;4980423;28;20725;-47
2023/12/18 08:50:42;;;;;;;18.00;14.80;;;;;;;;;;4978553;28;20195;-48
2023/12/18 08:53:08;;;;;;;23.43;16.30;;;;;;;;;;4978804;28;20257;-48
2023/12/18 08:55:39;;;;;;;22.53;15.90;;;;;;;;;;4978388;28;20201;-47
2023/12/18 08:58:05;;;;;;;21.00;14.80;;;;;;;;;;4980300;28;20297;-48
2023/12/18 09:00:31;;;;;;;19.53;15.47;;;;;;;;;;4980148;28;20685;-47
2023/12/18 09:02:58;;;;;;;22.63;15.17;;;;;;;;;;4978854;28;20234;-48
2023/12/18 09:05:24;;;;;;;19.13;14.27;;;;;;;;;;4978755;28;20245;-48
2023/12/18 09:07:50;;;;;;;18.77;16.47;;;;;;;;;;4980012;28;20661;-46
2023/12/18 09:10:22;;;;;;;21.17;16.73;;;;;;;;;;4978504;28;20204;-47
2023/12/18 09:12:49;;;;;;;27.50;17.87;;;;;;;;;;4978338;28;20230;-46
2023/12/18 09:15:16;;;;;;;25.80;19.73;;;;;;;;;;4980283;28;20453;-46
2023/12/18 09:17:42;;;;;;;25.37;18.67;;;;;;;;;;4978418;28;20261;-46
2023/12/18 09:20:08;;;;;;;28.37;20.63;;;;;;;;;;4978538;28;20273;-47
2023/12/18 09:22:36;;;;;;;27.80;20.97;;;;;;;;;;4978561;28;20218;-47
2023/12/18 09:25:02;;;;;;;28.70;21.40;;;;;;;;;;4978452;28;20199;-47
2023/12/18 09:27:28;;;;;;;33.77;21.23;;;;;;;;;;4979986;28;20245;-46
2023/12/18 09:29:55;;;;;;;29.73;22.97;;;;;;;;;;4978185;28;20437;-47
2023/12/18 09:32:22;;;;;;;28.17;22.33;;;;;;;;;;4978834;28;20605;-47
2023/12/18 09:34:48;;;;;;;30.97;23.77;;;;;;;;;;4980010;28;21112;-47
2023/12/18 09:37:14;;;;;;;30.57;22.77;;;;;;;;;;4978428;28;20269;-47
2023/12/18 09:39:40;;;;;;;29.90;22.10;;;;;;;;;;4979939;28;20677;-47
2023/12/18 09:42:06;;;;;;;29.97;22.27;;;;;;;;;;4980088;28;20202;-48
2023/12/18 09:44:32;;;;;;;34.60;23.10;;;;;;;;;;4981585;28;20265;-47
2023/12/18 09:47:00;;;;;;;32.53;23.30;;;;;;;;;;4981788;28;20660;-48
2023/12/18 09:49:26;;;;;;;31.93;23.30;;;;;;;;;;4983371;28;20533;-47
2023/12/18 09:51:53;;;;;;;28.13;22.67;;;;;;;;;;4983164;28;20606;-48
2023/12/18 09:54:20;;;;;;;31.10;23.43;;;;;;;;;;4983477;28;20616;-47
2023/12/18 09:56:48;;;;;;;26.67;20.83;;;;;;;;;;4981505;28;20199;-47
2023/12/18 09:59:14;;;;;;;29.20;21.73;;;;;;;;;;4983321;28;20587;-47
2023/12/18 10:01:40;;;;;;;26.90;21.20;;;;;;;;;;4981476;28;20200;-48
2023/12/18 10:04:07;;;;;;;27.27;21.73;;;;;;;;;;4981418;28;20198;-47
2023/12/18 10:06:33;;;;;;;26.13;20.17;;;;;;;;;;4981478;28;20224;-47
2023/12/18 10:09:03;;;;;;;27.80;21.47;;;;;;;;;;4981476;28;20653;-47
2023/12/18 10:11:29;;;;;;;27.33;22.53;;;;;;;;;;4981182;28;20238;-47
2023/12/18 10:13:55;;;;;;;28.57;22.50;;;;;;;;;;4983246;28;20207;-47
2023/12/18 10:16:21;;;;;;;30.60;21.70;;;;;;;;;;4981342;28;20198;-47
2023/12/18 10:18:47;;;;;;;31.50;22.97;;;;;;;;;;4981027;28;20599;-47
2023/12/18 10:21:21;;;;;;;29.57;23.43;;;;;;;;;;4981314;28;20682;-47
2023/12/18 10:23:47;;;;;;;32.37;23.80;;;;;;;;;;4981062;28;21040;-47
2023/12/18 10:26:13;;;;;;;35.53;24.30;;;;;;;;;;4982881;28;20194;-47
2023/12/18 10:28:39;;;;;;;33.27;24.43;;;;;;;;;;4980991;28;20280;-47
2023/12/18 10:31:08;;;;;;;35.33;23.20;;;;;;;;;;4980679;28;20234;-47
2023/12/18 10:33:34;;;;;;;35.93;24.63;;;;;;;;;;4980716;28;20202;-47
2023/12/18 10:36:00;;;;;;;35.00;25.10;;;;;;;;;;4980871;28;20203;-47
2023/12/18 10:38:30;;;;;;;33.23;23.27;;;;;;;;;;4980996;28;20194;-47
2023/12/18 10:41:00;;;;;;;33.20;23.73;;;;;;;;;;4982637;28;20810;-46
2023/12/18 10:43:26;;;;;;;33.70;23.43;;;;;;;;;;4982558;28;20213;-46
2023/12/18 10:45:53;;;;;;;30.57;23.40;;;;;;;;;;4980598;28;20199;-47
2023/12/18 10:48:20;;;;;;;30.90;22.47;;;;;;;;;;4980686;28;20274;-46
2023/12/18 10:50:48;;;;;;;31.87;22.10;;;;;;;;;;4982070;28;20285;-46
2023/12/18 10:53:16;;;;;;;33.20;23.53;;;;;;;;;;4980238;28;20218;-47
2023/12/18 10:55:44;;;;;;;32.37;22.57;;;;;;;;;;4980815;28;20199;-46
2023/12/18 10:58:11;;;;;;;35.90;24.57;;;;;;;;;;4981853;28;20261;-46
2023/12/18 11:00:38;;;;;;;35.10;24.80;;;;;;;;;;4982011;28;20203;-49
2023/12/18 11:03:05;;;;;;;35.33;24.10;;;;;;;;;;4979971;28;20629;-47
2023/12/18 11:05:32;;;;;;;30.23;22.80;;;;;;;;;;4980199;28;20204;-48
2023/12/18 11:07:58;;;;;;;33.33;22.90;;;;;;;;;;4981929;28;20261;-48
2023/12/18 11:10:24;;;;;;;33.00;23.70;;;;;;;;;;4983770;28;20204;-48
2023/12/18 11:12:55;;;;;;;31.70;23.23;;;;;;;;;;4981621;28;20269;-48
2023/12/18 11:15:24;;;;;;;32.87;24.27;;;;;;;;;;4981651;28;20237;-48
2023/12/18 11:17:56;;;;;;;31.37;22.63;;;;;;;;;;4979912;28;20202;-48
2023/12/18 11:20:25;;;;;;;31.63;23.97;;;;;;;;;;4980291;28;21378;-48
2023/12/18 11:22:53;;;;;;;30.83;23.40;;;;;;;;;;4972998;28;20241;-49
2023/12/18 11:25:19;;;;;;;31.27;22.63;;;;;;;;;;4974017;28;20569;-48
2023/12/18 11:27:45;;;;;;;29.80;21.57;;;;;;;;;;4973549;28;20776;-48
2023/12/18 11:30:23;;;;;;;34.90;23.30;;;;;;;;;;4973974;28;20199;-48
2023/12/18 11:32:50;;;;;;;30.70;23.40;;;;;;;;;;4972997;28;20230;-48
2023/12/18 11:35:21;;;;;;;31.10;23.67;;;;;;;;;;4970272;28;20206;-47
2023/12/18 11:37:49;;;;;;;30.70;23.07;;;;;;;;;;4973807;28;20191;-47
2023/12/18 11:40:38;;;;;;;31.37;23.00;;;;;;;;;;4973983;28;20207;-47
2023/12/18 11:43:05;;;;;;;32.07;23.37;;;;;;;;;;4973916;28;20195;-46
2023/12/18 11:45:34;;;;;;;32.23;23.83;;;;;;;;;;4973825;28;20580;-48
2023/12/18 11:48:02;;;;;;;30.13;22.27;;;;;;;;;;4973814;28;20229;-47
2023/12/18 11:50:31;;;;;;;32.33;22.60;;;;;;;;;;4973706;28;20300;-47
2023/12/18 11:52:57;;;;;;;35.37;23.90;;;;;;;;;;4973651;28;20258;-46
2023/12/18 11:55:56;;;;;;;37.20;23.57;;;;;;;;;;4972157;28;20230;-47
2023/12/18 11:58:24;;;;;;;36.37;22.80;;;;;;;;;;4914235;29;20205;-47
2023/12/18 12:00:52;;;;;;;33.20;23.50;;;;;;;;;;4912219;29;20213;-47
2023/12/18 12:03:18;;;;;;;31.43;22.73;;;;;;;;;;4939432;28;20213;-47
2023/12/18 12:05:46;;;;;;;30.50;23.40;;;;;;;;;;4966304;28;20210;-46
2023/12/18 12:08:12;;;;;;;35.90;25.10;;;;;;;;;;4965200;28;20214;-47
2023/12/18 12:10:42;;;;;;;35.93;24.20;;;;;;;;;;4968446;28;20202;-47
2023/12/18 12:13:08;;;;;;;33.23;21.93;;;;;;;;;;4966623;28;20294;-47
2023/12/18 12:15:34;;;;;;;31.47;23.60;;;;;;;;;;4963042;28;20225;-46
2023/12/18 12:18:03;;;;;;;32.20;22.90;;;;;;;;;;4964830;28;20209;-47
2023/12/18 12:20:29;;;;;;;35.17;23.00;;;;;;;;;;4963059;28;20278;-47
2023/12/18 12:22:55;;;;;;;33.07;23.53;;;;;;;;;;4961612;28;20694;-46
2023/12/18 12:25:21;;;;;;;31.37;23.17;;;;;;;;;;4964448;28;20579;-47
2023/12/18 12:27:47;;;;;;;28.93;22.10;;;;;;;;;;4962357;28;20231;-47
2023/12/18 12:30:13;;;;;;;29.90;22.07;;;;;;;;;;4962566;28;20290;-47
2023/12/18 12:32:40;;;;;;;31.53;21.90;;;;;;;;;;4962706;28;20645;-47
2023/12/18 12:35:09;;;;;;;29.97;21.80;;;;;;;;;;4962614;28;20203;-47
2023/12/18 12:37:35;;;;;;;28.13;21.70;;;;;;;;;;4962391;28;20285;-47
2023/12/18 12:40:05;;;;;;;28.83;21.60;;;;;;;;;;4964484;28;20222;-47
2023/12/18 12:42:31;;;;;;;30.13;20.50;;;;;;;;;;4960874;28;20632;-46
2023/12/18 12:44:58;;;;;;;34.40;22.20;;;;;;;;;;4962384;28;20202;-47
2023/12/18 12:47:26;;;;;;;26.63;20.03;;;;;;;;;;4961181;28;20210;-47
2023/12/18 12:49:53;;;;;;;27.13;20.87;;;;;;;;;;4962560;28;20215;-47
2023/12/18 12:52:20;;;;;;;29.00;21.30;;;;;;;;;;4960677;28;20269;-47
2023/12/18 12:54:47;;;;;;;30.60;20.80;;;;;;;;;;4967493;28;20265;-47
2023/12/18 12:57:13;;;;;;;29.43;20.47;;;;;;;;;;4962570;28;20203;-47
2023/12/18 12:59:50;;;;;;;27.70;20.03;;;;;;;;;;4962288;28;20207;-46
2023/12/18 13:02:16;;;;;;;30.63;20.67;;;;;;;;;;4966054;28;20195;-46
2023/12/18 13:04:42;;;;;;;24.87;19.27;;;;;;;;;;4962555;28;20545;-46
2023/12/18 13:07:08;;;;;;;24.33;19.40;;;;;;;;;;4967883;28;20281;-46
2023/12/18 13:09:41;;;;;;;29.33;19.57;;;;;;;;;;4964336;28;20679;-48
2023/12/18 13:12:08;;;;;;;31.73;20.33;;;;;;;;;;4960765;28;20226;-46
2023/12/18 13:14:34;;;;;;;26.30;19.50;;;;;;;;;;4962547;28;20207;-47
2023/12/18 13:17:00;;;;;;;28.53;20.97;;;;;;;;;;4971114;28;20203;-47
2023/12/18 13:19:26;;;;;;;26.77;19.43;;;;;;;;;;4966511;28;20688;-47
2023/12/18 13:21:52;;;;;;;27.80;20.10;;;;;;;;;;4968075;28;20198;-47
2023/12/18 13:24:18;;;;;;;27.53;19.40;;;;;;;;;;4962979;28;20550;-47
2023/12/18 13:26:46;;;;;;;28.93;20.10;;;;;;;;;;4964459;28;20265;-48
2023/12/18 13:29:12;;;;;;;28.03;20.67;;;;;;;;;;4965730;28;20290;-47
2023/12/18 13:31:38;;;;;;;25.80;20.57;;;;;;;;;;4964248;28;20226;-46
2023/12/18 13:34:04;;;;;;;28.10;20.77;;;;;;;;;;4966214;28;20273;-47
2023/12/18 13:36:30;;;;;;;32.07;20.00;;;;;;;;;;4965793;28;20285;-48
2023/12/18 13:38:57;;;;;;;27.23;19.93;;;;;;;;;;4965595;28;20236;-47
2023/12/18 13:41:23;;;;;;;29.40;20.03;;;;;;;;;;4963859;28;20261;-47
2023/12/18 13:43:50;;;;;;;28.17;20.43;;;;;;;;;;4964026;28;20198;-47
2023/12/18 13:46:17;;;;;;;25.27;19.23;;;;;;;;;;4963952;28;20610;-48
2023/12/18 13:48:43;;;;;;;27.67;20.47;;;;;;;;;;4963520;28;20206;-48
2023/12/18 13:51:09;;;;;;;29.13;20.43;;;;;;;;;;4962245;28;20213;-48
2023/12/18 13:53:35;;;;;;;27.23;19.90;;;;;;;;;;4967387;28;20225;-47
2023/12/18 13:56:01;;;;;;;27.33;20.67;;;;;;;;;;4963431;28;20230;-47
2023/12/18 13:58:27;;;;;;;30.33;20.27;;;;;;;;;;4969062;28;20261;-47
2023/12/18 14:00:54;;;;;;;27.90;20.70;;;;;;;;;;4962813;28;20199;-47
2023/12/18 14:03:21;;;;;;;26.77;20.17;;;;;;;;;;4965496;28;20550;-47
2023/12/18 14:05:47;;;;;;;32.40;21.77;;;;;;;;;;4965673;28;20924;-47
2023/12/18 14:08:13;;;;;;;28.43;20.07;;;;;;;;;;4962165;28;20277;-47
2023/12/18 14:10:39;;;;;;;34.17;22.23;;;;;;;;;;4966965;28;20198;-47
2023/12/18 14:13:05;;;;;;;31.00;22.20;;;;;;;;;;4965198;28;20568;-47
2023/12/18 14:15:30;;;;;;;29.53;20.40;;;;;;;;;;4975217;28;20207;-47